Time;durP1;ratioP1;P1;durP2;ratioP2;P2;SDS_P1;SDS_P2;PMS_P1;PMS_P2;Temp;Humidity;BMP_temperature;BMP_pressure;BME280_temperature;BME280_humidity;BME280_pressure;Samples;Min_cycle;Max_cycle;Signal;HPM_P1;HPM_P2
2023/04/26 00:01:35;;;;;;;;;;;;;;;8.18;100.00;98995.84;5043737;28;19927;-40
2023/04/26 00:04:01;;;;;;;;;;;;;;;8.61;100.00;98980.38;5048461;28;19920;-40
2023/04/26 00:06:27;;;;;;;;;;;;;;;8.32;100.00;98987.81;5050259;28;20035;-39
2023/04/26 00:08:52;;;;;;;;;;;;;;;8.70;100.00;98975.00;5044629;28;20067;-40
2023/04/26 00:11:17;;;;;;;;;;;;;;;8.11;100.00;98993.44;5046124;28;19946;-40
2023/04/26 00:13:42;;;;;;;;;;;;;;;7.78;100.00;99018.94;5047562;28;19920;-39
2023/04/26 00:16:08;;;;;;;;;;;;;;;7.28;100.00;99031.84;5043282;28;19921;-40
2023/04/26 00:18:33;;;;;;;;;;;;;;;7.52;100.00;99055.31;5042616;28;19928;-40
2023/04/26 00:20:58;;;;;;;;;;;;;;;8.01;100.00;99035.59;5043393;28;19920;-40
2023/04/26 00:23:23;;;;;;;;;;;;;;;8.31;100.00;99016.94;5043222;28;19913;-40
2023/04/26 00:25:48;;;;;;;;;;;;;;;8.18;100.00;99007.81;5046490;28;19920;-40
2023/04/26 00:28:14;;;;;;;;;;;;;;;8.32;100.00;99010.91;5042205;28;19920;-40
2023/04/26 00:30:46;;;;;;;;;;;;;;;8.13;100.00;99001.97;5044602;28;19917;-40
2023/04/26 00:33:11;;;;;;;;;;;;;;;7.03;100.00;99049.38;5039020;28;19927;-40
2023/04/26 00:35:37;;;;;;;;;;;;;;;7.94;100.00;99042.56;5042313;28;19925;-40
2023/04/26 00:38:02;;;;;;;;;;;;;;;8.28;100.00;99034.97;5045263;28;19920;-40
2023/04/26 00:40:27;;;;;;;;;;;;;;;8.42;100.00;99029.56;5041495;28;19928;-40
2023/04/26 00:42:56;;;;;;;;;;;;;;;8.47;100.00;99008.94;5048218;28;19917;-40
2023/04/26 00:45:21;;;;;;;;;;;;;;;8.30;100.00;99015.28;5032234;28;19927;-40
2023/04/26 00:47:46;;;;;;;;;;;;;;;7.37;100.00;99020.59;5042829;28;20155;-40
2023/04/26 00:50:11;;;;;;;;;;;;;;;7.59;100.00;99045.81;5030195;28;19916;-40
2023/04/26 00:52:37;;;;;;;;;;;;;;;8.32;100.00;99018.63;5021681;28;20015;-40
2023/04/26 00:55:02;;;;;;;;;;;;;;;7.85;100.00;99011.97;5023749;28;19979;-40
2023/04/26 00:57:27;;;;;;;;;;;;;;;8.50;100.00;99006.28;5030882;28;19920;-40
2023/04/26 00:59:52;;;;;;;;;;;;;;;8.86;100.00;98993.44;5052876;28;20557;-40
2023/04/26 01:02:17;;;;;;;;;;;;;;;8.74;100.00;98974.88;5042166;28;20532;-40
2023/04/26 01:04:44;;;;;;;;;;;;;;;7.99;100.00;98988.59;5050287;28;19984;-40
2023/04/26 01:07:10;;;;;;;;;;;;;;;8.20;100.00;99008.63;5044438;28;19924;-40
2023/04/26 01:09:36;;;;;;;;;;;;;;;7.88;100.00;99005.03;5019547;28;20115;-40
2023/04/26 01:12:01;;;;;;;;;;;;;;;7.59;100.00;99026.13;5038842;28;19921;-40
2023/04/26 01:14:26;;;;;;;;;;;;;;;7.67;100.00;99026.84;5019911;28;19913;-40
2023/04/26 01:16:51;;;;;;;;;;;;;;;7.85;100.00;99033.31;5038245;28;19920;-40
2023/04/26 01:19:17;;;;;;;;;;;;;;;7.99;100.00;99024.50;5045088;28;20476;-41
2023/04/26 01:21:42;;;;;;;;;;;;;;;7.88;100.00;99017.03;5038528;28;20580;-40
2023/04/26 01:24:08;;;;;;;;;;;;;;;8.07;100.00;99025.16;5019944;28;20482;-40
2023/04/26 01:26:33;;;;;;;;;;;;;;;8.11;100.00;99029.38;5038111;28;20099;-40
2023/04/26 01:28:58;;;;;;;;;;;;;;;8.29;100.00;99018.69;5043874;28;20536;-40
2023/04/26 01:31:24;;;;;;;;;;;;;;;8.03;100.00;99016.72;5036535;28;20381;-40
2023/04/26 01:33:49;;;;;;;;;;;;;;;8.30;100.00;99010.13;5037235;28;19951;-40
2023/04/26 01:36:14;;;;;;;;;;;;;;;8.22;100.00;98994.06;5038085;28;19972;-40
2023/04/26 01:38:40;;;;;;;;;;;;;;;8.56;100.00;98983.03;5038346;28;19974;-40
2023/04/26 01:41:05;;;;;;;;;;;;;;;7.84;100.00;99003.41;5037708;28;19917;-40
2023/04/26 01:43:30;;;;;;;;;;;;;;;7.74;100.00;99009.63;5040499;28;20015;-40
2023/04/26 01:45:55;;;;;;;;;;;;;;;8.16;100.00;99017.28;5039377;28;20642;-40
2023/04/26 01:48:21;;;;;;;;;;;;;;;7.94;100.00;99002.38;5041680;28;19924;-40
2023/04/26 01:50:46;;;;;;;;;;;;;;;8.21;100.00;99004.34;5042902;28;19921;-40
2023/04/26 01:53:11;;;;;;;;;;;;;;;8.20;100.00;99006.06;5038177;28;19920;-40
2023/04/26 01:55:36;;;;;;;;;;;;;;;8.55;100.00;98992.47;5037869;28;20157;-40
2023/04/26 01:58:01;;;;;;;;;;;;;;;7.74;100.00;99009.63;5040843;28;19920;-40
2023/04/26 02:00:27;;;;;;;;;;;;;;;7.84;100.00;99016.22;5041772;28;19925;-40
2023/04/26 02:02:53;;;;;;;;;;;;;;;7.94;100.00;99017.75;5037449;28;19921;-40
2023/04/26 02:05:18;;;;;;;;;;;;;;;8.12;100.00;99016.50;5039719;28;19935;-40
2023/04/26 02:07:44;;;;;;;;;;;;;;;8.03;100.00;99021.84;5038517;28;19924;-40
2023/04/26 02:10:09;;;;;;;;;;;;;;;8.29;100.00;98998.16;5037904;28;19920;-40
2023/04/26 02:12:34;;;;;;;;;;;;;;;7.10;100.00;99015.09;5035200;28;19921;-40
2023/04/26 02:15:00;;;;;;;;;;;;;;;6.88;100.00;99044.50;5039030;28;20214;-40
2023/04/26 02:17:25;;;;;;;;;;;;;;;7.01;100.00;99048.53;5037693;28;19999;-40
2023/04/26 02:19:50;;;;;;;;;;;;;;;7.41;100.00;99052.97;5037171;28;19970;-40
2023/04/26 02:22:16;;;;;;;;;;;;;;;8.01;100.00;99026.16;5035425;28;19921;-40
2023/04/26 02:24:41;;;;;;;;;;;;;;;8.08;100.00;99016.63;5038522;28;19921;-40
2023/04/26 02:27:06;;;;;;;;;;;;;;;7.74;100.00;99022.44;5037501;28;20308;-40
2023/04/26 02:29:32;;;;;;;;;;;;;;;7.27;100.00;99030.16;5036326;28;19921;-40
2023/04/26 02:31:57;;;;;;;;;;;;;;;7.93;100.00;99015.22;5036941;28;19925;-40
2023/04/26 02:34:22;;;;;;;;;;;;;;;7.59;100.00;99035.56;5041078;28;20396;-40
2023/04/26 02:36:47;;;;;;;;;;;;;;;7.73;100.00;99024.16;5038446;28;20007;-40
2023/04/26 02:39:13;;;;;;;;;;;;;;;7.48;100.00;99044.31;5038853;28;19917;-40
2023/04/26 02:41:38;;;;;;;;;;;;;;;7.85;100.00;99043.59;5037010;28;19921;-40
2023/04/26 02:44:03;;;;;;;;;;;;;;;8.05;100.00;99032.06;5042835;28;19917;-40
2023/04/26 02:46:28;;;;;;;;;;;;;;;7.53;100.00;99032.25;5038955;28;19916;-40
2023/04/26 02:48:54;;;;;;;;;;;;;;;7.70;100.00;99038.75;5037003;28;19990;-40
2023/04/26 02:51:19;;;;;;;;;;;;;;;7.56;100.00;99035.63;5036844;28;19917;-40
2023/04/26 02:53:45;;;;;;;;;;;;;;;7.72;100.00;99031.88;5036824;28;19974;-40
2023/04/26 02:56:10;;;;;;;;;;;;;;;7.09;100.00;99046.72;5037054;28;19931;-40
2023/04/26 02:58:35;;;;;;;;;;;;;;;6.82;100.00;99060.81;5037178;28;19920;-40
2023/04/26 03:01:00;;;;;;;;;;;;;;;6.74;100.00;99062.63;5017276;28;19921;-40
2023/04/26 03:03:26;;;;;;;;;;;;;;;7.11;100.00;99062.88;5036443;28;19916;-40
2023/04/26 03:05:51;;;;;;;;;;;;;;;7.40;100.00;99066.66;5042904;28;20400;-40
2023/04/26 03:08:16;;;;;;;;;;;;;;;7.74;100.00;99054.03;5037054;28;21326;-40
2023/04/26 03:10:43;;;;;;;;;;;;;;;8.03;100.00;99041.50;5038033;28;19924;-40
2023/04/26 03:13:08;;;;;;;;;;;;;;;7.96;100.00;99021.13;5036966;28;19931;-40
2023/04/26 03:15:33;;;;;;;;;;;;;;;7.60;100.00;99029.56;5044563;28;19932;-40
2023/04/26 03:17:58;;;;;;;;;;;;;;;7.15;100.00;99044.91;5037741;28;19923;-40
2023/04/26 03:20:24;;;;;;;;;;;;;;;7.85;100.00;99033.31;5035482;28;19963;-40
2023/04/26 03:22:49;;;;;;;;;;;;;;;7.64;100.00;99036.31;5039340;28;20245;-40
2023/04/26 03:25:15;;;;;;;;;;;;;;;8.16;100.00;99020.72;5037185;28;20284;-40
2023/04/26 03:27:40;;;;;;;;;;;;;;;8.09;100.00;99015.72;5036383;28;20190;-40
2023/04/26 03:30:06;;;;;;;;;;;;;;;7.87;100.00;99010.22;5016210;28;20271;-40
2023/04/26 03:32:31;;;;;;;;;;;;;;;7.65;100.00;99020.06;5037489;28;21251;-40
2023/04/26 03:34:56;;;;;;;;;;;;;;;7.25;100.00;99020.81;5036083;28;19990;-40
2023/04/26 03:37:21;;;;;;;;;;;;;;;7.66;100.00;99032.88;5036903;28;20300;-40
2023/04/26 03:39:47;;;;;;;;;;;;;;;7.63;100.00;99032.06;5036605;28;19920;-40
2023/04/26 03:42:12;;;;;;;;;;;;;;;7.62;100.00;99030.34;5035168;28;19921;-40
2023/04/26 03:44:37;;;;;;;;;;;;;;;7.65;100.00;99020.06;5035419;28;19924;-40
2023/04/26 03:47:04;;;;;;;;;;;;;;;7.46;100.00;99025.56;5036867;28;19917;-40
2023/04/26 03:49:29;;;;;;;;;;;;;;;7.31;100.00;99030.94;5036142;28;19998;-40
2023/04/26 03:51:54;;;;;;;;;;;;;;;7.65;100.00;99025.19;5036909;28;20488;-40
2023/04/26 03:54:20;;;;;;;;;;;;;;;7.68;100.00;99025.13;5018670;28;19943;-40
2023/04/26 03:56:45;;;;;;;;;;;;;;;7.31;100.00;99036.06;5036627;28;20605;-40
2023/04/26 03:59:11;;;;;;;;;;;;;;;6.64;100.00;99059.38;5037158;28;20296;-40
2023/04/26 04:01:36;;;;;;;;;;;;;;;7.61;100.00;99046.63;5035624;28;20124;-40
2023/04/26 04:04:02;;;;;;;;;;;;;;;7.46;100.00;99046.06;5036239;28;19967;-40
2023/04/26 04:06:27;;;;;;;;;;;;;;;6.63;100.00;99041.47;5038717;28;19920;-40
2023/04/26 04:08:52;;;;;;;;;;;;;;;6.52;100.00;99064.66;5039733;28;20178;-40
2023/04/26 04:11:17;;;;;;;;;;;;;;;7.22;100.00;99059.28;5038649;28;20873;-40
2023/04/26 04:13:43;;;;;;;;;;;;;;;7.49;100.00;99043.41;5039631;28;19925;-40
2023/04/26 04:16:09;;;;;;;;;;;;;;;7.35;100.00;99032.59;5038179;28;20032;-40
2023/04/26 04:18:34;;;;;;;;;;;;;;;7.07;100.00;99035.66;5039739;28;19916;-40
2023/04/26 04:21:00;;;;;;;;;;;;;;;7.26;100.00;99054.09;5038850;28;19948;-40
2023/04/26 04:23:26;;;;;;;;;;;;;;;7.12;100.00;99046.66;5039411;28;19943;-40
2023/04/26 04:25:51;;;;;;;;;;;;;;;7.47;100.00;99037.47;5038770;28;20006;-40
2023/04/26 04:28:16;;;;;;;;;;;;;;;7.91;100.00;99033.22;5039374;28;19917;-40
2023/04/26 04:30:43;;;;;;;;;;;;;;;8.25;100.00;99011.94;5038365;28;19935;-40
2023/04/26 04:33:08;;;;;;;;;;;;;;;8.35;100.00;98998.03;5037602;28;20356;-40
2023/04/26 04:35:33;;;;;;;;;;;;;;;7.90;100.00;98994.78;5039229;28;19920;-40
2023/04/26 04:37:58;;;;;;;;;;;;;;;8.17;100.00;98988.19;5040075;28;19916;-40
2023/04/26 04:40:24;;;;;;;;;;;;;;;7.85;100.00;98987.19;5037920;28;19917;-40
2023/04/26 04:42:49;;;;;;;;;;;;;;;8.26;100.00;98998.25;5039403;28;20094;-40
2023/04/26 04:45:16;;;;;;;;;;;;;;;8.31;100.00;98998.16;5039396;28;19916;-40
2023/04/26 04:47:41;;;;;;;;;;;;;;;8.48;100.00;98987.50;5038207;28;20624;-40
2023/04/26 04:50:07;;;;;;;;;;;;;;;8.17;100.00;99003.59;5038766;28;19985;-40
2023/04/26 04:52:32;;;;;;;;;;;;;;;8.42;100.00;98997.94;5039086;28;20404;-40
2023/04/26 04:54:58;;;;;;;;;;;;;;;8.51;100.00;98997.72;5039184;28;20366;-40
2023/04/26 04:57:23;;;;;;;;;;;;;;;8.61;100.00;98980.38;5039618;28;20345;-40
2023/04/26 04:59:48;;;;;;;;;;;;;;;8.85;100.00;98982.34;5038756;28;19921;-40
2023/04/26 05:02:13;;;;;;;;;;;;;;;8.66;100.00;98988.78;5038919;28;20003;-40
2023/04/26 05:04:38;;;;;;;;;;;;;;;8.77;100.00;98994.50;5021322;28;20004;-40
2023/04/26 05:07:05;;;;;;;;;;;;;;;8.89;100.00;98988.22;5039061;28;20003;-40
2023/04/26 05:09:30;;;;;;;;;;;;;;;8.99;100.00;98994.81;5020844;28;20015;-40
2023/04/26 05:11:56;;;;;;;;;;;;;;;8.99;100.00;98994.81;5042355;28;20022;-40
2023/04/26 05:14:21;;;;;;;;;;;;;;;9.12;100.00;98990.19;5042292;28;19912;-40
2023/04/26 05:16:46;;;;;;;;;;;;;;;9.03;100.00;98996.41;5038901;28;20211;-40
2023/04/26 05:19:12;;;;;;;;;;;;;;;8.93;100.00;99000.09;5038010;28;19939;-40
2023/04/26 05:21:37;;;;;;;;;;;;;;;9.29;100.00;98993.16;5041856;28;19920;-40
2023/04/26 05:24:03;;;;;;;;;;;;;;;8.46;100.00;99020.94;5041470;28;19916;-40
2023/04/26 05:26:28;;;;;;;;;;;;;;;7.76;100.00;99048.91;5039232;28;20136;-40
2023/04/26 05:28:53;;;;;;;;;;;;;;;8.84;100.00;99041.44;5038430;28;19916;-40
2023/04/26 05:31:18;;;;;;;;;;;;;;;8.05;100.00;99063.69;5037419;28;20152;-40
2023/04/26 05:33:43;;;;;;;;;;;;;;;7.47;100.00;99098.97;5037466;28;19925;-40
2023/04/26 05:36:09;;;;;;;;;;;;;;;7.42;100.00;99095.66;5039528;28;19942;-40
2023/04/26 05:38:35;;;;;;;;;;;;;;;7.29;100.00;99119.78;5043157;28;19916;-40
2023/04/26 05:41:01;;;;;;;;;;;;;;;6.95;100.00;99134.84;5036049;28;19921;-40
2023/04/26 05:43:26;;;;;;;;;;;;;;;7.61;100.00;99147.41;5038541;28;19990;-40
2023/04/26 05:45:52;;;;;;;;;;;;;;;7.03;100.00;99148.38;5038077;28;19979;-40
2023/04/26 05:48:17;;;;;;;;;;;;;;;7.44;100.00;99159.69;5038808;28;20487;-40
2023/04/26 05:50:42;;;;;;;;;;;;;;;8.37;100.00;99142.56;5020475;28;19924;-40
2023/04/26 05:53:07;;;;;;;;;;;;;;;8.07;100.00;99126.03;5037934;28;20218;-40
2023/04/26 05:55:32;;;;;;;;;;;;;;;8.25;100.00;99134.25;5038281;28;19920;-40
2023/04/26 05:57:58;;;;;;;;;;;;;;;9.05;100.00;99107.66;5037958;28;19917;-40
2023/04/26 06:00:23;;;;;;;;;;;;;;;8.96;100.00;99103.63;5038112;28;19921;-40
2023/04/26 06:02:49;;;;;;;;;;;;;;;8.23;100.00;99106.06;5037320;28;20283;-40
2023/04/26 06:05:14;;;;;;;;;;;;;;;9.08;100.00;99092.22;5038258;28;20364;-40
2023/04/26 06:07:39;;;;;;;;;;;;;;;8.32;100.00;99121.25;5019866;28;20312;-40
2023/04/26 06:10:05;;;;;;;;;;;;;;;7.18;100.00;99142.16;5037637;28;19917;-40
2023/04/26 06:12:30;;;;;;;;;;;;;;;7.32;100.00;99181.22;5037495;28;20268;-40
2023/04/26 06:14:55;;;;;;;;;;;;;;;8.45;100.00;99192.91;5038305;28;19947;-40
2023/04/26 06:17:21;;;;;;;;;;;;;;;7.84;100.00;99188.03;5037400;28;19940;-40
2023/04/26 06:19:46;;;;;;;;;;;;;;;8.84;100.00;99180.09;5037744;28;19916;-40
2023/04/26 06:22:11;;;;;;;;;;;;;;;8.22;100.00;99165.94;5037327;28;19962;-40
2023/04/26 06:24:36;;;;;;;;;;;;;;;8.87;100.00;99162.03;5037791;28;19920;-40
2023/04/26 06:27:01;;;;;;;;;;;;;;;8.68;100.00;99146.22;5037988;28;20248;-40
2023/04/26 06:29:27;;;;;;;;;;;;;;;8.55;100.00;99177.28;5037403;28;20351;-40
2023/04/26 06:31:52;;;;;;;;;;;;;;;7.94;100.00;99175.91;5017794;28;20351;-40
2023/04/26 06:34:17;;;;;;;;;;;;;;;7.28;100.00;99205.22;5036884;28;19917;-40
2023/04/26 06:36:43;;;;;;;;;;;;;;;8.48;100.00;99218.50;5037369;28;19924;-40
2023/04/26 06:39:08;;;;;;;;;;;;;;;9.57;100.00;99174.94;5043339;28;19920;-40
2023/04/26 06:41:33;;;;;;;;;;;;;;;8.82;100.00;99156.16;5036874;28;20023;-40
2023/04/26 06:43:58;;;;;;;;;;;;;;;8.33;100.00;99181.97;5039410;28;20027;-40
2023/04/26 06:46:24;;;;;;;;;;;;;;;9.03;100.00;99183.94;5037427;28;20209;-40
2023/04/26 06:48:51;;;;;;;;;;;;;;;9.21;100.00;99196.38;5037076;28;20348;-40
2023/04/26 06:51:16;;;;;;;;;;;;;;;8.91;100.00;99197.91;5019302;28;20274;-40
2023/04/26 06:53:42;;;;;;;;;;;;;;;8.90;100.00;99196.22;5036007;28;19978;-40
2023/04/26 06:56:07;;;;;;;;;;;;;;;9.63;100.00;99198.78;5037636;28;20434;-40
2023/04/26 06:58:32;;;;;;;;;;;;;;;9.54;100.00;99181.00;5036977;28;20367;-39
2023/04/26 07:00:57;;;;;;;;;;;;;;;8.41;100.00;99175.88;5036135;28;20294;-39
2023/04/26 07:03:23;;;;;;;;;;;;;;;10.17;100.00;99173.38;5036253;28;19921;-39
2023/04/26 07:05:48;;;;;;;;;;;;;;;9.13;100.00;99141.75;5036818;28;19964;-39
2023/04/26 07:08:13;;;;;;;;;;;;;;;8.67;100.00;99185.63;5038871;28;19917;-39
2023/04/26 07:10:39;;;;;;;;;;;;;;;8.71;100.00;99190.66;5038554;28;19928;-39
2023/04/26 07:13:05;;;;;;;;;;;;;;;9.39;100.00;99186.53;5042312;28;19920;-39
2023/04/26 07:15:31;;;;;;;;;;;;;;;10.87;100.00;99135.28;5041646;28;19927;-40
2023/04/26 07:17:56;;;;;;;;;;;;;;;10.97;100.00;99092.06;5039465;28;20404;-39
2023/04/26 07:20:23;;;;;;;;;;;;;;;9.72;100.00;99079.41;5035000;28;19923;-39
2023/04/26 07:22:48;;;;;;;;;;;;;;;8.89;100.00;99121.75;5037242;28;20059;-39
2023/04/26 07:25:13;;;;;;;;;;;;;;;9.48;100.00;99147.75;5037068;28;20011;-39
2023/04/26 07:27:38;;;;;;;;;;;;;;;9.08;100.00;99147.88;5039307;28;19952;-39
2023/04/26 07:30:04;;;;;;;;;;;;;;;8.63;100.00;99166.84;5039043;28;19924;-39
2023/04/26 07:32:29;;;;;;;;;;;;;;;8.83;100.00;99193.84;5039322;28;19917;-39
2023/04/26 07:34:55;;;;;;;;;;;;;;;8.79;100.00;99168.19;5041689;28;19921;-39
2023/04/26 07:37:20;;;;;;;;;;;;;;;8.48;100.00;99182.56;5039154;28;20359;-39
2023/04/26 07:39:45;;;;;;;;;;;;;;;8.44;100.00;99170.66;5047020;28;19917;-39
2023/04/26 07:42:11;;;;;;;;;;;;;;;8.65;100.00;99177.94;5047083;28;19917;-39
2023/04/26 07:44:36;;;;;;;;;;;;;;;8.66;100.00;99201.88;5043393;28;20974;-39
2023/04/26 07:47:01;;;;;;;;;;;;;;;9.71;100.00;99154.03;5044639;28;19920;-39
2023/04/26 07:49:26;;;;;;;;;;;;;;;9.19;100.00;99131.31;5042538;28;19917;-39
2023/04/26 07:51:51;;;;;;;;;;;;;;;10.19;100.00;99114.97;5042779;28;19917;-39
2023/04/26 07:54:17;;;;;;;;;;;;;;;9.46;100.00;99116.09;5024710;28;19925;-39
2023/04/26 07:56:42;;;;;;;;;;;;;;;8.96;100.00;99146.44;5042775;28;20224;-39
2023/04/26 07:59:07;;;;;;;;;;;;;;;8.42;100.00;99172.44;5049578;28;19920;-48
2023/04/26 08:01:33;;;;;;;;;;;;;;;8.37;100.00;99181.03;5042596;28;19947;-39
2023/04/26 08:03:58;;;;;;;;;;;;;;;8.60;100.00;99172.06;5044421;28;19916;-39
2023/04/26 08:06:23;;;;;;;;;;;;;;;9.12;100.00;99149.47;5042983;28;19913;-39
2023/04/26 08:08:49;;;;;;;;;;;;;;;11.27;100.00;99085.03;5030945;28;20355;-39
2023/04/26 08:11:15;;;;;;;;;;;;;;;9.23;100.00;99102.97;5042326;28;19923;-39
2023/04/26 08:13:40;;;;;;;;;;;;;;;9.09;100.00;99129.84;5032495;28;19916;-39
2023/04/26 08:16:05;;;;;;;;;;;;;;;8.38;100.00;99145.97;5048934;28;19921;-39
2023/04/26 08:18:30;;;;;;;;;;;;;;;8.17;100.00;99171.16;5049562;28;20355;-39
2023/04/26 08:20:56;;;;;;;;;;;;;;;8.67;100.00;99178.75;5042313;28;20341;-39
2023/04/26 08:23:21;;;;;;;;;;;;;;;9.07;100.00;99167.56;5042042;28;19944;-39
2023/04/26 08:25:48;;;;;;;;;;;;;;;8.86;100.00;99134.69;5048381;28;19921;-39
2023/04/26 08:28:13;;;;;;;;;;;;;;;8.87;100.00;99144.06;5042383;28;19924;-39
2023/04/26 08:30:39;;;;;;;;;;;;;;;8.68;100.00;99141.91;5051632;28;20305;-40
2023/04/26 08:33:04;;;;;;;;;;;;;;;8.99;100.00;99133.53;5049036;28;19916;-40
2023/04/26 08:35:29;;;;;;;;;;;;;;;8.96;100.00;99121.59;5050365;28;19931;-39
2023/04/26 08:37:54;;;;;;;;;;;;;;;8.47;100.00;99093.63;5042882;28;19939;-39
2023/04/26 08:40:22;;;;;;;;;;;;;;;8.78;100.00;99084.34;5036886;28;19963;-39
2023/04/26 08:42:47;;;;;;;;;;;;;;;8.61;100.00;99117.25;5021889;28;19923;-39
2023/04/26 08:45:13;;;;;;;;;;;;;;;8.50;100.00;99119.22;5039573;28;20257;-39
2023/04/26 08:47:46;;;;;;;;;;;;;;;9.01;100.00;99111.22;5021669;28;19916;-39
2023/04/26 08:50:13;;;;;;;;;;;;;;;8.88;100.00;99113.22;5038809;28;20408;-39
2023/04/26 08:52:39;;;;;;;;;;;;;;;9.25;100.00;99088.38;5038280;28;20419;-39
2023/04/26 08:55:05;;;;;;;;;;;;;;;8.85;100.00;99107.31;5039615;28;20369;-39
2023/04/26 08:57:30;;;;;;;;;;;;;;;8.73;100.00;99111.00;5039092;28;20009;-39
2023/04/26 08:59:56;;;;;;;;;;;;;;;8.65;100.00;99123.19;5039322;28;19920;-39
2023/04/26 09:02:22;;;;;;;;;;;;;;;8.54;100.00;99136.25;5056891;28;19916;-39
2023/04/26 09:04:47;;;;;;;;;;;;;;;8.87;100.00;99108.97;5039624;28;19916;-39
2023/04/26 09:07:24;;;;;;;;;;;;;;;9.07;100.00;99105.06;5039586;28;20230;-39
2023/04/26 09:09:50;;;;;;;;;;;;;;;8.34;100.00;99114.38;5038977;28;19939;-39
2023/04/26 09:12:17;;;;;;;;;;;;;;;8.56;100.00;99119.09;5038683;28;19921;-39
2023/04/26 09:14:42;;;;;;;;;;;;;;;8.30;100.00;99130.72;5022146;28;19912;-39
2023/04/26 09:17:27;;;;;;;;;;;;;;;8.35;100.00;99151.16;5038634;28;20434;-39
2023/04/26 09:19:53;;;;;;;;;;;;;;;8.30;100.00;99161.53;5038436;28;19916;-39
2023/04/26 09:22:31;;;;;;;;;;;;;;;8.34;100.00;99175.94;5038035;28;20266;-39
2023/04/26 09:24:56;;;;;;;;;;;;;;;8.85;100.00;99164.66;5049223;28;19912;-39
2023/04/26 09:27:22;;;;;;;;;;;;;;;8.40;100.00;99166.47;5048450;28;20755;-39
2023/04/26 09:30:06;;;;;;;;;;;;;;;9.19;100.00;99149.31;5020684;28;19948;-39
2023/04/26 09:32:48;;;;;;;;;;;;;;;9.16;100.00;99141.66;5037183;28;20869;-39
2023/04/26 09:35:32;;;;;;;;;;;;;;;9.21;100.00;99123.56;5038529;28;20157;-39
2023/04/26 09:38:00;;;;;;;;;;;;;;;8.07;100.00;99148.28;5039129;28;19967;-39
2023/04/26 09:40:26;;;;;;;;;;;;;;;8.62;100.00;99134.38;5038586;28;19924;-39
2023/04/26 09:42:56;;;;;;;;;;;;;;;8.38;100.00;99166.47;5038033;28;19932;-39
2023/04/26 09:45:22;;;;;;;;;;;;;;;9.05;100.00;99123.09;5038480;28;19963;-39
2023/04/26 09:47:48;;;;;;;;;;;;;;;9.02;100.00;99105.19;5038260;28;20336;-39
2023/04/26 09:50:13;;;;;;;;;;;;;;;8.59;100.00;99106.19;5038671;28;19917;-39
2023/04/26 09:52:42;;;;;;;;;;;;;;;9.34;100.00;99088.97;5019770;28;19928;-39
2023/04/26 09:55:07;;;;;;;;;;;;;;;9.31;100.00;99089.06;5038247;28;20012;-39
2023/04/26 09:57:32;;;;;;;;;;;;;;;9.43;100.00;99052.75;5038303;28;20011;-39
2023/04/26 09:59:59;;;;;;;;;;;;;;;9.88;100.00;99064.41;5020266;28;20164;-39
2023/04/26 10:02:25;;;;;;;;;;;;;;;10.26;100.00;99028.97;5039383;28;19920;-39
2023/04/26 10:04:52;;;;;;;;;;;;;;;11.49;100.00;98983.72;5037308;28;19920;-39
2023/04/26 10:07:18;;;;;;;;;;;;;;;10.21;100.00;99010.25;5037884;28;20463;-39
2023/04/26 10:09:43;;;;;;;;;;;;;;;9.32;100.00;99049.63;5019538;28;19917;-39
2023/04/26 10:12:10;;;;;;;;;;;;;;;9.33;100.00;99071.88;5038001;28;19962;-39
2023/04/26 10:14:35;;;;;;;;;;;;;;;9.14;100.00;99086.91;5020017;28;19928;-39
2023/04/26 10:17:01;;;;;;;;;;;;;;;9.20;100.00;99094.47;5036279;28;20572;-39
2023/04/26 10:19:26;;;;;;;;;;;;;;;9.52;100.00;99103.09;5017618;28;19929;-39
2023/04/26 10:21:51;;;;;;;;;;;;;;;10.24;100.00;99077.06;5035244;28;20606;-39
2023/04/26 10:24:17;;;;;;;;;;;;;;;10.40;100.00;99044.91;5019110;28;20459;-39
2023/04/26 10:26:46;;;;;;;;;;;;;;;11.18;100.00;99056.16;5019097;28;20324;-39
2023/04/26 10:29:11;;;;;;;;;;;;;;;10.53;100.00;99024.75;5037644;28;19924;-39
2023/04/26 10:31:56;;;;;;;;;;;;;;;10.42;100.00;98983.03;5036340;28;19920;-39
2023/04/26 10:34:21;;;;;;;;;;;;;;;11.15;100.00;98969.44;5036588;28;19920;-39
2023/04/26 10:37:05;;;;;;;;;;;;;;;10.86;100.00;98994.50;5038132;28;20383;-39
2023/04/26 10:39:30;;;;;;;;;;;;;;;10.93;100.00;99012.31;5018781;28;19916;-39
2023/04/26 10:42:17;;;;;;;;;;;;;;;10.50;100.00;99026.59;5036057;28;19921;-39
2023/04/26 10:44:44;;;;;;;;;;;;;;;10.70;100.00;98972.72;5037210;28;20452;-39
2023/04/26 10:47:24;;;;;;;;;;;;;;;10.74;100.00;98989.75;5039810;28;19928;-39
2023/04/26 10:49:51;;;;;;;;;;;;;;;11.08;100.00;98993.75;5036388;28;19966;-39
2023/04/26 10:52:18;;;;;;;;;;;;;;;10.65;100.00;98990.03;5038673;28;19920;-39
2023/04/26 10:54:47;;;;;;;;;;;;;;;10.52;100.00;98996.47;5039371;28;19920;-39
2023/04/26 10:57:13;;;;;;;;;;;;;;;10.35;100.00;99017.59;5041675;28;19916;-39
2023/04/26 10:59:38;;;;;;;;;;;;;;;13.46;100.00;98908.69;5020925;28;20950;-39
2023/04/26 11:02:03;;;;;;;;;;;;;;;11.92;100.00;98921.06;5039351;28;20398;-39
2023/04/26 11:04:52;;;;;;;;;;;;;;;10.85;100.00;98971.34;5039389;28;21061;-39
2023/04/26 11:07:34;;;;;;;;;;;;;;;10.59;100.00;98972.22;5032546;28;19925;-39
2023/04/26 11:09:59;;;;;;;;;;;;;;;10.41;100.00;98982.22;5021305;28;19963;-39
2023/04/26 11:12:25;;;;;;;;;;;;;;;10.88;100.00;98940.34;5038919;28;19929;-39
2023/04/26 11:14:50;;;;;;;;;;;;;;;9.82;100.00;99015.69;5020840;28;19932;-39
2023/04/26 11:17:15;;;;;;;;;;;;;;;9.26;100.00;99043.78;5041593;28;20124;-39
2023/04/26 11:19:40;;;;;;;;;;;;;;;10.12;100.00;98997.69;5044760;28;19974;-39
2023/04/26 11:22:06;;;;;;;;;;;;;;;10.52;100.00;99009.34;5041401;28;20007;-39
2023/04/26 11:24:35;;;;;;;;;;;;;;;11.22;100.00;98970.94;5041964;28;20050;-39
2023/04/26 11:27:01;;;;;;;;;;;;;;;11.04;100.00;98987.03;5042078;28;20022;-39
2023/04/26 11:29:27;;;;;;;;;;;;;;;11.15;100.00;98951.41;5046945;28;19921;-39
2023/04/26 11:31:56;;;;;;;;;;;;;;;12.44;100.00;98912.16;5024179;28;19920;-39
2023/04/26 11:34:30;;;;;;;;;;;;;;;11.82;100.00;98965.34;5043418;28;19924;-39
2023/04/26 11:36:56;;;;;;;;;;;;;;;11.17;100.00;98951.34;5025594;28;20330;-39
2023/04/26 11:39:21;;;;;;;;;;;;;;;10.86;100.00;98986.75;5043439;28;19960;-39
2023/04/26 11:41:46;;;;;;;;;;;;;;;10.74;100.00;98979.44;5040767;28;19940;-39
2023/04/26 11:44:12;;;;;;;;;;;;;;;10.15;100.00;99001.00;5045520;28;19921;-39
2023/04/26 11:46:37;;;;;;;;;;;;;;;11.88;100.00;98908.34;5042803;28;20408;-39
2023/04/26 11:49:02;;;;;;;;;;;;;;;10.74;100.00;98948.53;5025375;28;19931;-39
2023/04/26 11:51:28;;;;;;;;;;;;;;;10.15;100.00;99000.13;5043028;28;21030;-39
2023/04/26 11:53:54;;;;;;;;;;;;;;;10.12;100.00;99000.25;5024893;28;19927;-39
2023/04/26 11:56:19;;;;;;;;;;;;;;;9.70;100.00;99034.06;5042359;28;19921;-39
2023/04/26 11:58:45;;;;;;;;;;;;;;;9.99;100.00;99041.78;5042893;28;19927;-39
2023/04/26 12:01:10;;;;;;;;;;;;;;;10.60;100.00;98999.63;5042739;28;19959;-39
2023/04/26 12:03:39;;;;;;;;;;;;;;;10.37;100.00;99011.50;5042611;28;19924;-39
2023/04/26 12:06:05;;;;;;;;;;;;;;;10.23;100.00;99011.06;5042896;28;20907;-39
2023/04/26 12:08:31;;;;;;;;;;;;;;;10.56;100.00;99016.06;5046424;28;19921;-39
2023/04/26 12:11:02;;;;;;;;;;;;;;;10.54;100.00;99012.72;5041845;28;20680;-39
2023/04/26 12:13:28;;;;;;;;;;;;;;;10.96;100.00;99022.53;5024780;28;19916;-39
2023/04/26 12:15:53;;;;;;;;;;;;;;;10.50;100.00;99004.25;5042089;28;19916;-39
2023/04/26 12:18:18;;;;;;;;;;;;;;;10.62;100.00;99018.47;5042691;28;19920;-39
2023/04/26 12:20:45;;;;;;;;;;;;;;;10.47;100.00;98968.31;5045026;28;19956;-39
2023/04/26 12:23:14;;;;;;;;;;;;;;;10.68;100.00;98953.88;5042263;28;19927;-39
2023/04/26 12:25:40;;;;;;;;;;;;;;;12.18;100.00;98914.06;5041717;28;19913;-39
2023/04/26 12:28:10;;;;;;;;;;;;;;;11.99;100.00;98929.44;5041322;28;19948;-38
2023/04/26 12:30:35;;;;;;;;;;;;;;;12.66;100.00;98860.47;5027103;28;19955;-39
2023/04/26 12:33:01;;;;;;;;;;;;;;;11.51;100.00;98918.28;5041042;28;20015;-39
2023/04/26 12:35:26;;;;;;;;;;;;;;;11.36;100.00;98936.94;5041916;28;19921;-39
2023/04/26 12:37:55;;;;;;;;;;;;;;;11.86;100.00;98928.19;5041505;28;20272;-38
2023/04/26 12:40:21;;;;;;;;;;;;;;;11.60;100.00;98958.38;5040399;28;19964;-39